createdAt,value
2023-05-25T00:00:19.003Z,4.37
2023-05-25T00:02:48.744Z,4.37
2023-05-25T00:05:18.190Z,3.83
2023-05-25T00:07:47.315Z,4.53
2023-05-25T00:10:14.081Z,3.53
2023-05-25T00:12:40.945Z,4.20
2023-05-25T00:15:08.585Z,3.77
2023-05-25T00:17:37.292Z,3.93
2023-05-25T00:20:07.862Z,3.50
2023-05-25T00:22:38.520Z,3.87
2023-05-25T00:25:06.473Z,4.20
2023-05-25T00:27:33.292Z,4.10
2023-05-25T00:30:00.171Z,3.60
2023-05-25T00:32:27.091Z,4.10
2023-05-25T00:34:55.157Z,4.03
2023-05-25T00:37:22.238Z,3.53
2023-05-25T00:39:49.071Z,3.63
2023-05-25T00:42:16.356Z,3.53
2023-05-25T00:44:43.248Z,3.90
2023-05-25T00:47:11.797Z,4.07
2023-05-25T00:49:38.784Z,4.67
2023-05-25T00:52:06.470Z,3.83
2023-05-25T00:54:35.124Z,4.10
2023-05-25T00:57:04.495Z,3.97
2023-05-25T00:59:48.326Z,3.50
2023-05-25T01:02:17.496Z,3.60
2023-05-25T01:04:59.656Z,4.63
2023-05-25T01:07:28.343Z,3.87
2023-05-25T01:10:02.155Z,4.13
2023-05-25T01:12:38.434Z,4.00
2023-05-25T01:15:06.358Z,4.57
2023-05-25T01:17:37.881Z,4.60
2023-05-25T01:20:11.088Z,4.43
2023-05-25T01:22:55.411Z,4.20
2023-05-25T01:25:40.124Z,4.30
2023-05-25T01:28:16.881Z,4.37
2023-05-25T01:30:48.338Z,4.10
2023-05-25T01:33:18.437Z,4.17
2023-05-25T01:35:47.081Z,4.53
2023-05-25T01:38:14.626Z,4.10
2023-05-25T01:40:41.446Z,4.90
2023-05-25T01:43:08.191Z,4.87
2023-05-25T01:45:36.598Z,4.67
2023-05-25T01:48:23.884Z,4.83
2023-05-25T01:51:10.967Z,4.67
2023-05-25T01:53:45.422Z,4.70
2023-05-25T01:56:14.618Z,4.73
2023-05-25T01:58:48.194Z,4.27
2023-05-25T02:01:17.375Z,4.37
2023-05-25T02:03:48.729Z,4.10
2023-05-25T02:06:16.699Z,4.30
2023-05-25T02:08:46.428Z,4.60
2023-05-25T02:11:16.762Z,4.53
2023-05-25T02:13:43.572Z,4.80
2023-05-25T02:16:10.443Z,4.60
2023-05-25T02:18:37.386Z,4.50
2023-05-25T02:21:04.209Z,4.40
2023-05-25T02:23:31.168Z,4.43
2023-05-25T02:25:58.004Z,4.43
2023-05-25T02:28:25.009Z,4.30
2023-05-25T02:30:51.836Z,4.10
2023-05-25T02:33:18.871Z,4.53
2023-05-25T02:35:46.130Z,4.43
2023-05-25T02:38:16.397Z,4.47
2023-05-25T02:40:45.560Z,4.17
2023-05-25T02:43:12.335Z,3.93
2023-05-25T02:45:39.111Z,5.00
2023-05-25T02:48:06.281Z,4.63
2023-05-25T02:50:33.087Z,4.77
2023-05-25T02:52:59.847Z,4.43
2023-05-25T02:55:26.593Z,4.73
2023-05-25T02:57:53.435Z,4.63
2023-05-25T03:00:20.736Z,4.17
2023-05-25T03:02:48.862Z,4.43
2023-05-25T03:05:16.577Z,4.90
2023-05-25T03:07:43.529Z,4.17
2023-05-25T03:10:11.724Z,4.70
2023-05-25T03:12:38.501Z,4.77
2023-05-25T03:15:06.055Z,5.00
2023-05-25T03:17:32.922Z,4.90
2023-05-25T03:19:59.696Z,4.90
2023-05-25T03:22:27.074Z,4.50
2023-05-25T03:24:53.836Z,4.57
2023-05-25T03:27:20.610Z,4.33
2023-05-25T03:29:50.267Z,6.10
2023-05-25T03:32:17.322Z,4.83
2023-05-25T03:34:44.851Z,5.07
2023-05-25T03:37:11.827Z,4.33
2023-05-25T03:39:38.661Z,4.03
2023-05-25T03:42:06.348Z,4.80
2023-05-25T03:44:33.217Z,4.63
2023-05-25T03:46:59.984Z,4.63
2023-05-25T03:49:27.968Z,4.90
2023-05-25T03:51:54.887Z,4.47
2023-05-25T03:54:21.687Z,4.57
2023-05-25T03:56:48.493Z,4.50
2023-05-25T03:59:15.546Z,4.67
2023-05-25T04:01:42.313Z,5.13
2023-05-25T04:04:09.204Z,4.33
2023-05-25T04:06:40.086Z,5.13
2023-05-25T04:09:07.092Z,4.23
2023-05-25T04:11:33.914Z,4.37
2023-05-25T04:14:00.698Z,4.33
2023-05-25T04:16:27.650Z,4.87
2023-05-25T04:18:54.508Z,4.80
2023-05-25T04:21:21.464Z,5.00
2023-05-25T04:23:48.292Z,4.83
2023-05-25T04:26:16.396Z,4.17
2023-05-25T04:28:43.162Z,5.03
2023-05-25T04:31:10.190Z,4.67
2023-05-25T04:33:38.662Z,4.93
2023-05-25T04:36:06.366Z,5.20
2023-05-25T04:38:33.267Z,5.67
2023-05-25T04:41:03.016Z,4.60
2023-05-25T04:43:30.113Z,4.80
2023-05-25T04:45:57.902Z,5.30
2023-05-25T04:48:24.837Z,4.60
2023-05-25T04:50:52.958Z,4.37
2023-05-25T04:53:20.378Z,4.30
2023-05-25T04:55:47.358Z,4.73
2023-05-25T04:58:14.938Z,5.07
2023-05-25T05:00:41.990Z,4.57
2023-05-25T05:03:09.040Z,4.13
2023-05-25T05:05:36.894Z,4.60
2023-05-25T05:08:03.728Z,4.10
2023-05-25T05:10:30.632Z,4.60
2023-05-25T05:12:57.392Z,3.93
2023-05-25T05:15:24.254Z,3.77
2023-05-25T05:17:51.133Z,4.47
2023-05-25T05:20:18.098Z,4.43
2023-05-25T05:22:45.579Z,4.40
2023-05-25T05:25:12.358Z,3.70
2023-05-25T05:27:39.220Z,4.30
2023-05-25T05:30:07.530Z,4.50
2023-05-25T05:32:34.380Z,4.83
2023-05-25T05:35:01.377Z,3.80
2023-05-25T05:37:28.168Z,4.30
2023-05-25T05:39:54.952Z,4.50
2023-05-25T05:42:21.722Z,4.87
2023-05-25T05:44:48.603Z,4.60
2023-05-25T05:47:15.452Z,4.93
2023-05-25T05:49:42.205Z,4.73
2023-05-25T05:52:10.154Z,3.80
2023-05-25T05:54:36.938Z,4.17
2023-05-25T05:57:03.981Z,4.67
2023-05-25T05:59:30.776Z,4.77
2023-05-25T06:01:57.582Z,4.47
2023-05-25T06:04:28.427Z,4.47
2023-05-25T06:06:55.552Z,4.83
2023-05-25T06:09:22.404Z,4.30
2023-05-25T06:11:49.177Z,3.73
2023-05-25T06:14:15.987Z,3.80
2023-05-25T06:16:43.704Z,3.90
2023-05-25T06:19:11.010Z,4.53
2023-05-25T06:21:37.805Z,4.00
2023-05-25T06:24:05.486Z,4.70
2023-05-25T06:26:32.272Z,4.47
2023-05-25T06:28:59.124Z,4.60
2023-05-25T06:31:26.326Z,4.17
2023-05-25T06:33:53.191Z,4.13
2023-05-25T06:36:19.978Z,4.30
2023-05-25T06:38:47.196Z,3.63
2023-05-25T06:41:15.251Z,4.10
2023-05-25T06:43:45.240Z,4.10
2023-05-25T06:46:17.791Z,4.03
2023-05-25T06:48:45.560Z,3.33
2023-05-25T06:51:12.402Z,3.50
2023-05-25T06:53:39.884Z,3.50
2023-05-25T06:56:06.903Z,3.67
2023-05-25T06:58:33.699Z,3.20
2023-05-25T07:01:01.068Z,4.40
2023-05-25T07:03:27.993Z,3.90
2023-05-25T07:05:55.260Z,4.10
2023-05-25T07:08:22.022Z,4.10
2023-05-25T07:10:50.163Z,3.90
2023-05-25T07:13:17.346Z,4.27
2023-05-25T07:15:44.532Z,4.00
2023-05-25T07:18:12.368Z,4.73
2023-05-25T07:20:42.191Z,4.27
2023-05-25T07:23:12.864Z,4.73
2023-05-25T07:25:41.372Z,4.10
2023-05-25T07:28:08.762Z,4.60
2023-05-25T07:30:36.309Z,3.57
2023-05-25T07:33:03.127Z,3.37
2023-05-25T07:35:30.045Z,3.47
2023-05-25T07:38:02.465Z,3.87
2023-05-25T07:40:29.252Z,3.83
2023-05-25T07:42:56.520Z,4.17
2023-05-25T07:45:23.286Z,3.40
2023-05-25T07:47:50.168Z,3.50
2023-05-25T07:50:17.369Z,3.47
2023-05-25T07:52:44.630Z,3.80
2023-05-25T07:55:11.612Z,3.90
2023-05-25T07:57:38.406Z,3.80
2023-05-25T08:00:07.914Z,3.87
2023-05-25T08:02:34.771Z,3.83
2023-05-25T08:05:05.431Z,3.70
2023-05-25T08:07:35.741Z,3.47
2023-05-25T08:10:03.488Z,3.53
2023-05-25T08:12:46.976Z,3.17
2023-05-25T08:15:15.492Z,3.10
2023-05-25T08:17:42.508Z,3.30
2023-05-25T08:20:10.359Z,3.03
2023-05-25T08:22:37.380Z,4.27
2023-05-25T08:25:05.300Z,3.87
2023-05-25T08:27:35.109Z,3.20
2023-05-25T08:30:06.350Z,3.87
2023-05-25T08:32:33.254Z,3.43
2023-05-25T08:35:01.632Z,3.47
2023-05-25T08:37:35.552Z,4.10
2023-05-25T08:40:03.032Z,3.87
2023-05-25T08:42:30.386Z,3.67
2023-05-25T08:44:57.236Z,4.23
2023-05-25T08:47:25.219Z,3.30
2023-05-25T08:49:55.158Z,3.73
2023-05-25T08:52:26.398Z,3.60
2023-05-25T08:54:57.933Z,4.23
2023-05-25T08:57:49.114Z,4.03
2023-05-25T09:00:20.644Z,4.20
2023-05-25T09:03:09.359Z,4.47
2023-05-25T09:05:42.046Z,3.57
2023-05-25T09:08:10.277Z,4.37
2023-05-25T09:10:38.780Z,4.07
2023-05-25T09:13:20.497Z,4.30
2023-05-25T09:15:49.296Z,3.37
2023-05-25T09:18:16.256Z,3.87
2023-05-25T09:20:46.218Z,3.53
2023-05-25T09:23:15.462Z,3.70
2023-05-25T09:25:42.594Z,3.70
2023-05-25T09:28:25.409Z,4.17
2023-05-25T09:30:53.908Z,3.80
2023-05-25T09:33:21.348Z,3.97
2023-05-25T09:35:49.024Z,3.97
2023-05-25T09:38:17.272Z,3.47
2023-05-25T09:40:45.259Z,4.03
2023-05-25T09:43:21.917Z,3.53
2023-05-25T09:45:54.980Z,3.67
2023-05-25T09:48:25.446Z,3.17
2023-05-25T09:50:52.788Z,3.83
2023-05-25T09:53:21.062Z,3.40
2023-05-25T09:55:53.133Z,4.27
2023-05-25T09:58:24.916Z,3.33
2023-05-25T10:00:55.010Z,3.90
2023-05-25T10:03:22.010Z,3.00
2023-05-25T10:05:49.630Z,3.53
2023-05-25T10:08:27.180Z,3.57
2023-05-25T10:10:55.924Z,3.40
2023-05-25T10:13:23.235Z,3.33
2023-05-25T10:15:53.574Z,3.90
2023-05-25T10:18:27.301Z,3.60
2023-05-25T10:21:03.131Z,3.03
2023-05-25T10:23:47.371Z,3.53
2023-05-25T10:26:20.114Z,3.00
2023-05-25T10:28:51.833Z,3.30
2023-05-25T10:31:19.595Z,3.40
2023-05-25T10:33:50.618Z,2.93
2023-05-25T10:36:21.278Z,2.63
2023-05-25T10:38:54.228Z,3.27
2023-05-25T10:41:21.599Z,2.70
2023-05-25T10:43:49.284Z,3.23
2023-05-25T10:46:17.101Z,2.40
2023-05-25T10:48:49.458Z,3.30
2023-05-25T10:51:20.528Z,3.47
2023-05-25T10:53:59.678Z,3.20
2023-05-25T10:56:26.488Z,4.00
2023-05-25T10:58:53.578Z,3.70
2023-05-25T11:01:20.617Z,3.53
2023-05-25T11:03:48.209Z,3.20
2023-05-25T11:06:17.736Z,3.13
2023-05-25T11:08:55.611Z,3.53
2023-05-25T11:11:42.935Z,3.07
2023-05-25T11:14:28.174Z,3.63
2023-05-25T11:17:22.069Z,3.37
2023-05-25T11:19:51.995Z,3.63
2023-05-25T11:22:31.583Z,3.10
2023-05-25T11:25:23.310Z,3.73
2023-05-25T11:27:54.175Z,3.57
2023-05-25T11:30:27.735Z,3.37
2023-05-25T11:32:54.897Z,3.57
2023-05-25T11:35:21.904Z,3.23
2023-05-25T11:37:53.572Z,3.30
2023-05-25T11:40:23.180Z,3.27
2023-05-25T11:42:52.704Z,2.93
2023-05-25T11:45:23.104Z,3.10
2023-05-25T11:47:49.946Z,3.63
2023-05-25T11:50:17.295Z,3.47
2023-05-25T11:52:44.070Z,3.17
2023-05-25T11:55:14.955Z,3.27
2023-05-25T11:57:44.063Z,3.53
2023-05-25T12:00:12.089Z,3.10
2023-05-25T12:02:43.518Z,3.40
2023-05-25T12:05:11.715Z,3.57
2023-05-25T12:07:46.517Z,3.13
2023-05-25T12:10:16.453Z,3.23
2023-05-25T12:12:45.109Z,3.30
2023-05-25T12:15:15.919Z,2.90
2023-05-25T12:17:45.572Z,2.87
2023-05-25T12:20:15.294Z,3.10
2023-05-25T12:22:43.549Z,3.43
2023-05-25T12:25:12.428Z,3.17
2023-05-25T12:27:40.636Z,3.10
2023-05-25T12:30:11.690Z,3.10
2023-05-25T12:33:02.006Z,3.10
2023-05-25T12:35:44.089Z,3.30
2023-05-25T12:38:17.480Z,3.60
2023-05-25T12:40:45.266Z,3.00
2023-05-25T12:43:13.346Z,3.20
2023-05-25T12:45:43.866Z,3.17
2023-05-25T12:48:11.880Z,2.70
2023-05-25T12:50:38.839Z,3.00
2023-05-25T12:53:06.307Z,3.00
2023-05-25T12:55:36.174Z,3.10
2023-05-25T12:58:06.189Z,3.20
2023-05-25T13:00:38.353Z,3.70
2023-05-25T13:03:09.574Z,2.53
2023-05-25T13:05:38.382Z,3.40
2023-05-25T13:08:08.773Z,3.03
2023-05-25T13:10:38.096Z,3.50
2023-05-25T13:13:05.035Z,3.47
2023-05-25T13:15:31.942Z,3.20
2023-05-25T13:17:59.060Z,2.90
2023-05-25T13:20:30.069Z,3.40
2023-05-25T13:22:57.270Z,3.20
2023-05-25T13:25:26.899Z,3.03
2023-05-25T13:27:54.841Z,3.03
2023-05-25T13:30:22.183Z,3.27
2023-05-25T13:32:51.778Z,3.40
2023-05-25T13:35:24.027Z,2.77
2023-05-25T13:37:51.057Z,3.20
2023-05-25T13:40:18.213Z,3.40
2023-05-25T13:42:45.020Z,2.87
2023-05-25T13:45:11.865Z,3.33
2023-05-25T13:47:38.740Z,3.33
2023-05-25T13:50:07.027Z,2.90
2023-05-25T13:52:34.126Z,3.03
2023-05-25T13:55:01.114Z,2.80
2023-05-25T13:57:27.872Z,3.20
2023-05-25T13:59:54.687Z,3.27
2023-05-25T14:02:21.476Z,3.70
2023-05-25T14:04:48.257Z,2.80
2023-05-25T14:07:15.018Z,2.77
2023-05-25T14:09:41.778Z,3.23
2023-05-25T14:12:08.694Z,3.00
2023-05-25T14:14:35.471Z,2.80
2023-05-25T14:17:02.297Z,2.77
2023-05-25T14:19:36.547Z,3.17
2023-05-25T14:22:13.457Z,2.60
2023-05-25T14:24:41.764Z,3.90
2023-05-25T14:27:09.044Z,3.60
2023-05-25T14:29:36.115Z,3.20
2023-05-25T14:32:03.180Z,2.97
2023-05-25T14:34:30.112Z,2.60
2023-05-25T14:36:56.982Z,2.77
2023-05-25T14:39:23.897Z,2.23
2023-05-25T14:41:50.804Z,2.57
2023-05-25T14:44:17.651Z,2.50
2023-05-25T14:46:44.527Z,2.90
2023-05-25T14:49:13.472Z,2.30
2023-05-25T14:51:40.292Z,2.10
2023-05-25T14:54:07.662Z,2.30
2023-05-25T14:56:34.836Z,2.80
2023-05-25T14:59:01.563Z,2.40
2023-05-25T15:01:29.301Z,2.10
2023-05-25T15:03:56.425Z,2.30
2023-05-25T15:06:23.270Z,2.60
2023-05-25T15:08:49.899Z,2.33
2023-05-25T15:11:16.668Z,2.93
2023-05-25T15:13:43.395Z,2.90
2023-05-25T15:16:13.983Z,3.20
2023-05-25T15:18:41.120Z,2.50
2023-05-25T15:21:08.007Z,2.20
2023-05-25T15:23:35.036Z,2.57
2023-05-25T15:26:07.475Z,2.53
2023-05-25T15:28:34.650Z,2.50
2023-05-25T15:31:03.417Z,2.63
2023-05-25T15:33:47.225Z,2.20
2023-05-25T15:36:17.913Z,2.40
2023-05-25T15:38:48.583Z,2.90
2023-05-25T15:41:16.816Z,2.50
2023-05-25T15:43:52.490Z,2.47
2023-05-25T15:46:19.493Z,2.30
2023-05-25T15:48:47.247Z,2.90
2023-05-25T15:51:14.026Z,3.00
2023-05-25T15:53:40.801Z,2.90
2023-05-25T15:56:07.589Z,3.03
2023-05-25T15:58:34.583Z,2.90
2023-05-25T16:01:01.865Z,3.03
2023-05-25T16:03:29.452Z,2.70
2023-05-25T16:05:57.196Z,2.30
2023-05-25T16:08:24.187Z,3.20
2023-05-25T16:10:51.007Z,3.10
2023-05-25T16:13:17.765Z,3.17
2023-05-25T16:15:44.896Z,3.30
2023-05-25T16:18:11.945Z,3.10
2023-05-25T16:20:38.789Z,2.67
2023-05-25T16:23:06.418Z,2.60
2023-05-25T16:25:33.164Z,3.00
2023-05-25T16:27:59.931Z,2.90
2023-05-25T16:30:26.672Z,2.50
2023-05-25T16:32:53.433Z,3.07
2023-05-25T16:35:20.365Z,2.90
2023-05-25T16:37:47.111Z,2.70
2023-05-25T16:40:14.004Z,3.10
2023-05-25T16:42:40.782Z,2.80
2023-05-25T16:45:08.209Z,3.37
2023-05-25T16:47:35.062Z,2.97
2023-05-25T16:50:01.908Z,3.33
2023-05-25T16:52:28.657Z,3.47
2023-05-25T16:54:56.243Z,3.20
2023-05-25T16:57:22.996Z,2.77
2023-05-25T16:59:51.676Z,2.80
2023-05-25T17:02:19.805Z,3.10
2023-05-25T17:04:46.563Z,2.90
2023-05-25T17:07:13.428Z,2.57
2023-05-25T17:09:40.708Z,3.00
2023-05-25T17:12:07.937Z,3.23
2023-05-25T17:14:34.764Z,3.17
2023-05-25T17:17:01.574Z,3.57
2023-05-25T17:19:28.358Z,2.83
2023-05-25T17:21:55.165Z,2.80
2023-05-25T17:24:21.979Z,2.97
2023-05-25T17:26:50.084Z,2.83
2023-05-25T17:29:17.472Z,2.60
2023-05-25T17:31:45.680Z,2.57
2023-05-25T17:34:14.547Z,3.30
2023-05-25T17:36:42.100Z,2.73
2023-05-25T17:39:09.384Z,3.23
2023-05-25T17:41:36.170Z,3.40
2023-05-25T17:44:03.021Z,3.43
2023-05-25T17:46:29.984Z,4.00
2023-05-25T17:48:56.945Z,3.23
2023-05-25T17:51:23.708Z,3.40
2023-05-25T17:53:50.549Z,2.93
2023-05-25T17:56:17.347Z,3.30
2023-05-25T17:58:47.246Z,3.43
2023-05-25T18:01:15.321Z,2.60
2023-05-25T18:03:42.524Z,3.20
2023-05-25T18:06:09.374Z,3.17
2023-05-25T18:08:36.165Z,3.00
2023-05-25T18:11:03.181Z,3.50
2023-05-25T18:13:29.996Z,3.37
2023-05-25T18:15:56.849Z,3.77
2023-05-25T18:18:24.754Z,3.70
2023-05-25T18:20:51.689Z,3.20
2023-05-25T18:23:18.647Z,3.80
2023-05-25T18:25:45.788Z,4.10
2023-05-25T18:28:14.828Z,3.30
2023-05-25T18:30:42.813Z,3.80
2023-05-25T18:33:10.584Z,3.90
2023-05-25T18:35:38.230Z,3.60
2023-05-25T18:38:06.454Z,4.30
2023-05-25T18:40:33.309Z,3.57
2023-05-25T18:43:00.131Z,4.27
2023-05-25T18:45:26.970Z,4.03
2023-05-25T18:47:54.158Z,4.10
2023-05-25T18:50:21.305Z,3.30
2023-05-25T18:52:50.944Z,3.70
2023-05-25T18:55:18.885Z,3.50
2023-05-25T18:57:45.833Z,3.90
2023-05-25T19:00:13.626Z,4.10
2023-05-25T19:02:41.059Z,3.60
2023-05-25T19:05:11.283Z,4.07
2023-05-25T19:07:54.675Z,4.00
2023-05-25T19:10:25.253Z,3.43
2023-05-25T19:12:52.106Z,4.10
2023-05-25T19:15:18.919Z,3.83
2023-05-25T19:17:46.562Z,3.90
2023-05-25T19:20:13.908Z,4.17
2023-05-25T19:22:41.730Z,3.80
2023-05-25T19:25:08.773Z,3.67
2023-05-25T19:27:35.600Z,3.80
2023-05-25T19:30:02.473Z,4.13
2023-05-25T19:32:29.351Z,4.60
2023-05-25T19:34:56.318Z,4.13
2023-05-25T19:37:23.274Z,3.70
2023-05-25T19:39:50.052Z,4.00
2023-05-25T19:42:16.926Z,3.87
2023-05-25T19:44:45.218Z,3.77
2023-05-25T19:47:12.153Z,3.87
2023-05-25T19:49:38.918Z,4.20
2023-05-25T19:52:06.008Z,3.97
2023-05-25T19:54:32.868Z,4.47
2023-05-25T19:57:00.058Z,4.03
2023-05-25T19:59:31.027Z,4.97
2023-05-25T20:01:57.886Z,4.10
2023-05-25T20:04:25.047Z,4.17
2023-05-25T20:06:52.139Z,4.30
2023-05-25T20:09:19.011Z,4.10
2023-05-25T20:11:45.773Z,4.27
2023-05-25T20:14:12.619Z,4.33
2023-05-25T20:16:39.459Z,4.20
2023-05-25T20:19:07.503Z,4.33
2023-05-25T20:21:35.619Z,4.50
2023-05-25T20:24:03.346Z,4.63
2023-05-25T20:26:30.223Z,4.67
2023-05-25T20:28:57.337Z,4.70
2023-05-25T20:31:27.210Z,3.90
2023-05-25T20:33:54.032Z,4.10
2023-05-25T20:36:20.913Z,4.47
2023-05-25T20:38:49.988Z,4.67
2023-05-25T20:41:16.660Z,4.27
2023-05-25T20:43:43.423Z,4.60
2023-05-25T20:46:10.552Z,4.30
2023-05-25T20:48:40.319Z,5.10
2023-05-25T20:51:07.222Z,4.50
2023-05-25T20:53:34.011Z,4.90
2023-05-25T20:56:02.136Z,4.70
2023-05-25T20:58:28.920Z,4.70
2023-05-25T21:00:55.840Z,4.30
2023-05-25T21:03:22.677Z,4.70
2023-05-25T21:05:49.523Z,4.20
2023-05-25T21:08:16.303Z,5.00
2023-05-25T21:10:43.075Z,4.60
2023-05-25T21:13:09.863Z,4.57
2023-05-25T21:15:36.732Z,5.17
2023-05-25T21:18:05.392Z,4.70
2023-05-25T21:20:32.961Z,4.50
2023-05-25T21:23:00.592Z,4.63
2023-05-25T21:25:27.364Z,4.70
2023-05-25T21:27:56.749Z,4.57
2023-05-25T21:30:24.294Z,5.03
2023-05-25T21:32:51.179Z,4.93
2023-05-25T21:35:18.075Z,5.40
2023-05-25T21:37:45.654Z,4.80
2023-05-25T21:40:12.718Z,5.37
2023-05-25T21:42:39.504Z,4.70
2023-05-25T21:45:06.936Z,5.60
2023-05-25T21:47:33.730Z,5.23
2023-05-25T21:50:00.673Z,4.90
2023-05-25T21:52:27.442Z,5.20
2023-05-25T21:54:54.266Z,4.83
2023-05-25T21:57:21.009Z,5.10
2023-05-25T21:59:47.727Z,5.10
2023-05-25T22:02:14.602Z,5.07
2023-05-25T22:04:41.413Z,5.23
2023-05-25T22:07:08.225Z,4.97
2023-05-25T22:09:35.047Z,5.40
2023-05-25T22:12:02.236Z,5.47
2023-05-25T22:14:29.084Z,4.97
2023-05-25T22:16:55.980Z,5.47
2023-05-25T22:19:22.815Z,5.43
2023-05-25T22:21:49.590Z,5.03
2023-05-25T22:24:16.358Z,5.33
2023-05-25T22:26:43.213Z,5.83
2023-05-25T22:29:11.794Z,6.20
2023-05-25T22:31:39.026Z,5.93
2023-05-25T22:34:05.885Z,5.80
2023-05-25T22:36:32.750Z,5.83
2023-05-25T22:38:59.624Z,5.47
2023-05-25T22:41:26.515Z,5.33
2023-05-25T22:43:53.296Z,5.90
2023-05-25T22:46:20.818Z,6.03
2023-05-25T22:48:47.648Z,6.10
2023-05-25T22:51:14.414Z,6.37
2023-05-25T22:53:41.535Z,5.67
2023-05-25T22:56:08.379Z,6.13
2023-05-25T22:58:35.230Z,6.40
2023-05-25T23:01:02.048Z,6.03
2023-05-25T23:03:29.904Z,5.87
2023-05-25T23:05:56.983Z,6.40
2023-05-25T23:08:23.744Z,6.73
2023-05-25T23:10:50.609Z,6.00
2023-05-25T23:13:19.037Z,6.87
2023-05-25T23:15:47.415Z,6.37
2023-05-25T23:18:14.413Z,5.90
2023-05-25T23:20:41.618Z,6.10
2023-05-25T23:23:08.558Z,7.10
2023-05-25T23:25:36.267Z,7.07
2023-05-25T23:28:03.023Z,6.27
2023-05-25T23:30:29.816Z,6.63
2023-05-25T23:32:56.718Z,6.17
2023-05-25T23:35:23.490Z,6.63
2023-05-25T23:37:51.852Z,6.63
2023-05-25T23:40:18.712Z,6.27
2023-05-25T23:42:45.773Z,6.23
2023-05-25T23:45:13.399Z,6.10
2023-05-25T23:47:40.383Z,6.57
2023-05-25T23:50:07.696Z,6.50
2023-05-25T23:52:34.733Z,6.30
2023-05-25T23:55:01.650Z,6.20
2023-05-25T23:57:28.469Z,5.97
2023-05-25T23:59:55.307Z,5.50
